createdAt,value
2022-09-30T00:01:55.285Z,21.10
2022-09-30T00:04:26.031Z,21.20
2022-09-30T00:06:56.505Z,21.20
2022-09-30T00:09:25.422Z,21.20
2022-09-30T00:11:54.096Z,21.30
2022-09-30T00:14:24.927Z,21.30
2022-09-30T00:16:53.884Z,21.30
2022-09-30T00:19:22.598Z,21.20
2022-09-30T00:21:51.449Z,21.20
2022-09-30T00:24:21.423Z,21.10
2022-09-30T00:26:49.998Z,21.10
2022-09-30T00:29:18.761Z,21.20
2022-09-30T00:31:47.360Z,21.20
2022-09-30T00:34:16.024Z,21.20
2022-09-30T00:36:48.286Z,21.20
2022-09-30T00:39:20.071Z,21.20
2022-09-30T00:41:53.395Z,21.20
2022-09-30T00:44:51.689Z,21.20
2022-09-30T00:47:57.250Z,21.20
2022-09-30T00:50:39.012Z,21.10
2022-09-30T00:53:17.327Z,21.10
2022-09-30T00:55:58.846Z,21.00
2022-09-30T00:58:37.962Z,21.00
2022-09-30T01:01:07.405Z,21.00
2022-09-30T01:03:42.042Z,21.00
2022-09-30T01:06:12.251Z,21.00
2022-09-30T01:08:41.705Z,21.00
2022-09-30T01:11:10.542Z,21.00
2022-09-30T01:13:42.801Z,21.00
2022-09-30T01:21:18.019Z,20.90
2022-09-30T01:24:18.464Z,21.00
2022-09-30T01:27:38.941Z,21.00
2022-09-30T01:30:16.201Z,21.00
2022-09-30T01:33:28.860Z,21.00
2022-09-30T01:36:21.294Z,21.00
2022-09-30T01:39:04.351Z,21.00
2022-09-30T01:41:46.841Z,20.90
2022-09-30T01:44:29.694Z,20.90
2022-09-30T01:47:09.084Z,20.90
2022-09-30T01:49:47.998Z,20.90
2022-09-30T01:52:25.950Z,20.80
2022-09-30T01:55:02.023Z,20.80
2022-09-30T01:57:43.571Z,20.80
2022-09-30T02:00:15.446Z,20.80
2022-09-30T02:02:52.162Z,20.80
2022-09-30T02:05:32.055Z,20.90
2022-09-30T02:08:08.844Z,21.00
2022-09-30T02:10:45.667Z,21.20
2022-09-30T02:13:22.174Z,21.10
2022-09-30T02:15:57.420Z,21.20
2022-09-30T02:18:37.064Z,21.20
2022-09-30T02:21:12.409Z,21.30
2022-09-30T02:23:46.931Z,21.30
2022-09-30T02:26:23.331Z,21.20
2022-09-30T02:29:04.377Z,21.10
2022-09-30T02:31:38.485Z,21.10
2022-09-30T02:34:15.588Z,21.00
2022-09-30T02:36:56.188Z,20.90
2022-09-30T02:39:36.039Z,20.90
2022-09-30T02:42:15.525Z,20.90
2022-09-30T02:44:44.283Z,20.80
2022-09-30T02:47:23.021Z,20.80
2022-09-30T02:50:01.546Z,20.80
2022-09-30T02:52:49.185Z,20.70
2022-09-30T02:55:27.671Z,20.70
2022-09-30T02:58:05.513Z,20.70
2022-09-30T03:00:35.346Z,20.70
2022-09-30T03:03:13.493Z,20.70
2022-09-30T03:05:42.342Z,20.80
2022-09-30T03:08:13.035Z,20.80
2022-09-30T03:10:42.541Z,20.80
2022-09-30T03:13:27.077Z,20.80
2022-09-30T03:16:16.939Z,20.80
2022-09-30T03:19:10.971Z,20.80
2022-09-30T03:22:05.589Z,20.90
2022-09-30T03:24:57.981Z,20.90
2022-09-30T03:27:37.351Z,20.80
2022-09-30T03:30:10.030Z,20.80
2022-09-30T03:33:00.248Z,20.80
2022-09-30T03:35:37.553Z,20.70
2022-09-30T03:38:16.415Z,20.60
2022-09-30T03:41:00.244Z,20.60
2022-09-30T03:48:06.962Z,20.60
2022-09-30T03:50:38.343Z,20.60
2022-09-30T03:53:12.632Z,20.50
2022-09-30T03:55:53.061Z,20.50
2022-09-30T03:58:24.350Z,20.40
2022-09-30T04:00:57.181Z,20.40
2022-09-30T04:03:27.901Z,20.40
2022-09-30T04:05:56.479Z,20.40
2022-09-30T04:08:25.043Z,20.30
2022-09-30T04:10:55.124Z,20.40
2022-09-30T04:13:23.757Z,20.40
2022-09-30T04:15:55.786Z,20.40
2022-09-30T04:18:24.862Z,20.40
2022-09-30T04:20:53.798Z,20.40
2022-09-30T04:23:22.450Z,20.40
2022-09-30T04:25:55.408Z,20.40
2022-09-30T04:28:24.483Z,20.40
2022-09-30T04:30:53.270Z,20.40
2022-09-30T04:33:21.800Z,20.50
2022-09-30T04:35:50.298Z,20.50
2022-09-30T04:38:19.395Z,20.50
2022-09-30T04:45:21.738Z,20.50
2022-09-30T04:53:14.999Z,20.40
2022-09-30T04:55:43.703Z,20.30
2022-09-30T04:58:13.637Z,20.30
2022-09-30T05:00:43.790Z,20.20
2022-09-30T05:03:12.354Z,20.10
2022-09-30T05:05:45.117Z,20.10
2022-09-30T05:08:14.043Z,20.00
2022-09-30T05:10:42.769Z,20.00
2022-09-30T05:13:11.474Z,20.00
2022-09-30T05:15:40.011Z,20.00
2022-09-30T05:18:10.132Z,20.00
2022-09-30T05:20:38.662Z,20.00
2022-09-30T05:23:07.271Z,20.10
2022-09-30T05:25:36.847Z,20.10
2022-09-30T05:28:05.424Z,20.20
2022-09-30T05:30:33.970Z,20.30
2022-09-30T05:33:02.806Z,20.40
2022-09-30T05:35:33.062Z,20.40
2022-09-30T05:38:03.355Z,20.50
2022-09-30T05:40:32.756Z,20.60
2022-09-30T05:43:01.830Z,20.60
2022-09-30T05:50:04.161Z,20.80
2022-09-30T05:52:34.196Z,20.90
2022-09-30T05:55:03.587Z,20.90
2022-09-30T05:57:32.419Z,20.90
2022-09-30T06:00:01.803Z,21.00
2022-09-30T06:02:41.601Z,21.00
2022-09-30T06:05:11.966Z,21.00
2022-09-30T06:07:41.957Z,21.00
2022-09-30T06:10:12.482Z,21.00
2022-09-30T06:12:41.453Z,21.00
2022-09-30T06:15:11.266Z,21.00
2022-09-30T06:17:42.517Z,21.00
2022-09-30T06:20:11.949Z,21.00
2022-09-30T06:22:43.423Z,21.10
2022-09-30T06:25:12.909Z,21.10
2022-09-30T06:27:45.693Z,21.10
2022-09-30T06:30:14.970Z,21.10
2022-09-30T06:32:44.245Z,21.20
2022-09-30T06:35:13.016Z,21.20
2022-09-30T06:37:42.911Z,21.20
2022-09-30T06:40:11.914Z,21.10
2022-09-30T06:47:23.940Z,21.30
2022-09-30T06:49:58.638Z,21.40
2022-09-30T06:52:28.184Z,21.50
2022-09-30T06:54:58.052Z,21.60
2022-09-30T06:57:27.943Z,21.70
2022-09-30T06:59:56.846Z,21.80
2022-09-30T07:02:25.525Z,21.90
2022-09-30T07:04:54.236Z,22.00
2022-09-30T07:07:23.026Z,22.10
2022-09-30T07:09:52.921Z,22.20
2022-09-30T07:12:24.724Z,22.30
2022-09-30T07:14:53.571Z,22.30
2022-09-30T07:17:22.105Z,22.30
2022-09-30T07:19:52.318Z,22.40
2022-09-30T07:26:53.632Z,22.40
2022-09-30T07:29:23.887Z,22.50
2022-09-30T07:31:52.556Z,22.70
2022-09-30T07:34:21.262Z,22.80
2022-09-30T07:36:50.015Z,22.80
2022-09-30T07:39:18.741Z,23.00
2022-09-30T07:41:47.443Z,23.20
2022-09-30T07:44:16.672Z,23.30
2022-09-30T07:46:47.336Z,23.50
2022-09-30T07:49:25.656Z,23.60
2022-09-30T07:51:57.474Z,23.70
2022-09-30T07:59:01.145Z,23.90
2022-09-30T08:06:09.471Z,24.20
2022-09-30T08:08:38.964Z,24.30
2022-09-30T08:15:41.281Z,24.30
2022-09-30T08:18:10.028Z,24.30
2022-09-30T08:20:38.564Z,24.40
2022-09-30T08:23:08.691Z,24.50
2022-09-30T08:25:37.542Z,24.50
2022-09-30T08:32:38.115Z,24.70
2022-09-30T08:35:08.171Z,24.90
2022-09-30T08:42:38.395Z,25.00
2022-09-30T08:45:26.063Z,25.10
2022-09-30T08:48:09.979Z,25.20
2022-09-30T08:50:52.310Z,25.20
2022-09-30T08:53:30.563Z,25.20
2022-09-30T08:56:02.783Z,25.30
2022-09-30T08:58:38.256Z,25.30
2022-09-30T09:01:18.839Z,25.30
2022-09-30T09:03:47.966Z,25.30
2022-09-30T09:06:29.868Z,25.30
2022-09-30T09:09:32.814Z,25.20
2022-09-30T09:12:17.014Z,25.20
2022-09-30T09:19:25.259Z,25.20
2022-09-30T09:21:59.883Z,25.20
2022-09-30T09:24:31.584Z,25.30
2022-09-30T09:27:00.499Z,25.30
2022-09-30T09:29:43.936Z,25.30
2022-09-30T09:32:17.554Z,25.30
2022-09-30T09:34:54.649Z,25.30
2022-09-30T09:37:54.924Z,25.30
2022-09-30T09:40:34.969Z,25.30
2022-09-30T09:43:19.983Z,25.30
2022-09-30T09:46:01.789Z,25.40
2022-09-30T09:48:30.849Z,25.50
2022-09-30T09:51:13.263Z,25.60
2022-09-30T09:53:49.757Z,25.70
2022-09-30T09:56:21.378Z,25.80
2022-09-30T09:59:09.011Z,25.90
2022-09-30T10:01:40.901Z,26.00
2022-09-30T10:08:57.219Z,26.20
2022-09-30T10:11:29.319Z,26.50
2022-09-30T10:14:00.867Z,26.70
2022-09-30T10:16:35.592Z,26.90
2022-09-30T10:19:18.180Z,27.00
2022-09-30T10:21:47.250Z,27.10
2022-09-30T10:24:31.827Z,27.20
2022-09-30T10:27:00.658Z,27.30
2022-09-30T10:29:32.322Z,27.30
2022-09-30T10:32:42.223Z,27.30
2022-09-30T10:35:24.473Z,27.40
2022-09-30T10:37:55.826Z,27.40
2022-09-30T10:40:30.231Z,27.40
2022-09-30T10:42:59.717Z,27.50
2022-09-30T10:45:37.128Z,27.50
2022-09-30T10:48:17.064Z,27.70
2022-09-30T10:50:53.590Z,27.80
2022-09-30T10:53:26.363Z,27.90
2022-09-30T11:00:31.744Z,27.80
2022-09-30T11:03:09.018Z,27.90
2022-09-30T11:05:42.083Z,27.80
2022-09-30T11:08:20.914Z,27.80
2022-09-30T11:11:00.311Z,27.70
2022-09-30T11:13:41.035Z,27.70
2022-09-30T11:16:22.336Z,27.60
2022-09-30T11:19:01.878Z,27.50
2022-09-30T11:21:41.705Z,27.40
2022-09-30T11:24:26.920Z,27.30
2022-09-30T11:27:09.070Z,27.30
2022-09-30T11:29:56.159Z,27.30
2022-09-30T11:32:46.940Z,27.20
2022-09-30T11:35:45.503Z,27.20
2022-09-30T11:38:54.806Z,27.20
2022-09-30T11:41:32.782Z,27.30
2022-09-30T11:44:20.721Z,27.30
2022-09-30T11:47:09.617Z,27.30
2022-09-30T11:50:00.543Z,27.30
2022-09-30T11:52:40.951Z,27.30
2022-09-30T11:55:44.753Z,27.30
2022-09-30T12:02:49.735Z,27.20
2022-09-30T12:05:25.937Z,27.20
2022-09-30T12:08:03.683Z,27.20
2022-09-30T12:10:39.943Z,27.20
2022-09-30T12:13:25.064Z,27.10
2022-09-30T12:15:57.495Z,27.10
2022-09-30T12:18:35.428Z,27.10
2022-09-30T12:21:21.139Z,27.10
2022-09-30T12:23:58.858Z,27.10
2022-09-30T12:26:28.180Z,27.10
2022-09-30T12:29:22.806Z,27.20
2022-09-30T12:32:16.434Z,27.10
2022-09-30T12:35:04.299Z,27.00
2022-09-30T12:37:55.440Z,27.00
2022-09-30T12:40:57.571Z,27.00
2022-09-30T12:44:19.664Z,27.10
2022-09-30T12:47:10.378Z,27.10
2022-09-30T12:49:43.412Z,27.20
2022-09-30T12:52:18.374Z,27.30
2022-09-30T12:54:54.751Z,27.30
2022-09-30T12:57:31.998Z,27.40
2022-09-30T13:04:39.291Z,27.50
2022-09-30T13:07:22.093Z,27.50
2022-09-30T13:10:26.624Z,27.40
2022-09-30T13:13:26.400Z,27.40
2022-09-30T13:16:03.158Z,27.40
2022-09-30T13:23:04.209Z,27.40
2022-09-30T13:25:55.259Z,27.50
2022-09-30T13:28:38.964Z,27.50
2022-09-30T13:31:20.612Z,27.50
2022-09-30T13:34:11.695Z,27.50
2022-09-30T13:36:42.970Z,27.40
2022-09-30T13:39:26.728Z,27.40
2022-09-30T13:42:14.028Z,27.30
2022-09-30T13:45:03.303Z,27.20
2022-09-30T13:47:41.359Z,27.10
2022-09-30T13:50:19.398Z,27.00
2022-09-30T13:52:54.535Z,27.00
2022-09-30T13:55:30.184Z,27.00
2022-09-30T14:03:26.670Z,26.90
2022-09-30T14:06:17.660Z,27.00
2022-09-30T14:09:16.695Z,27.00
2022-09-30T14:12:13.589Z,26.90
2022-09-30T14:15:18.231Z,26.80
2022-09-30T14:18:17.810Z,26.70
2022-09-30T14:21:13.466Z,26.70
2022-09-30T14:23:42.904Z,26.70
2022-09-30T14:26:42.760Z,26.60
2022-09-30T14:29:19.806Z,26.60
2022-09-30T14:31:49.664Z,26.60
2022-09-30T14:34:23.323Z,26.60
2022-09-30T14:36:54.574Z,26.60
2022-09-30T14:39:28.227Z,26.70
2022-09-30T14:42:02.223Z,26.70
2022-09-30T14:44:36.521Z,26.70
2022-09-30T14:47:06.642Z,26.70
2022-09-30T14:49:37.521Z,26.80
2022-09-30T14:52:06.698Z,26.80
2022-09-30T14:54:35.524Z,26.70
2022-09-30T14:57:16.754Z,26.80
2022-09-30T14:59:45.523Z,26.70
2022-09-30T15:02:20.330Z,26.70
2022-09-30T15:09:28.800Z,26.70
2022-09-30T15:11:59.365Z,26.60
2022-09-30T15:14:28.003Z,26.60
2022-09-30T15:17:02.510Z,26.60
2022-09-30T15:19:43.544Z,26.60
2022-09-30T15:22:15.343Z,26.60
2022-09-30T15:24:47.406Z,26.60
2022-09-30T15:27:22.581Z,26.60
2022-09-30T15:29:58.602Z,26.60
2022-09-30T15:32:30.426Z,26.60
2022-09-30T15:35:05.493Z,26.60
2022-09-30T15:37:34.939Z,26.60
2022-09-30T15:40:33.466Z,26.60
2022-09-30T15:43:06.529Z,26.70
2022-09-30T15:45:39.585Z,26.80
2022-09-30T15:48:38.138Z,26.80
2022-09-30T15:51:27.963Z,26.80
2022-09-30T15:53:58.107Z,26.80
2022-09-30T15:56:34.538Z,26.80
2022-09-30T15:59:07.817Z,26.80
2022-09-30T16:01:40.195Z,26.70
2022-09-30T16:08:49.433Z,26.70
2022-09-30T16:11:26.487Z,26.70
2022-09-30T16:13:58.093Z,26.80
2022-09-30T16:16:30.751Z,26.70
2022-09-30T16:19:02.335Z,26.70
2022-09-30T16:21:44.279Z,26.60
2022-09-30T16:24:48.949Z,26.60
2022-09-30T16:27:31.610Z,26.60
2022-09-30T16:30:01.973Z,26.60
2022-09-30T16:32:42.527Z,26.50
2022-09-30T16:35:19.961Z,26.50
2022-09-30T16:37:50.019Z,26.50
2022-09-30T16:40:25.367Z,26.40
2022-09-30T16:42:55.792Z,26.50
2022-09-30T16:45:24.802Z,26.40
2022-09-30T16:47:53.520Z,26.40
2022-09-30T16:50:39.445Z,26.40
2022-09-30T16:53:09.812Z,26.40
2022-09-30T16:55:40.136Z,26.30
2022-09-30T16:58:13.975Z,26.30
2022-09-30T17:00:45.467Z,26.30
2022-09-30T17:03:17.381Z,26.30
2022-09-30T17:05:53.104Z,26.30
2022-09-30T17:08:24.284Z,26.20
2022-09-30T17:10:54.212Z,26.20
2022-09-30T17:13:23.874Z,26.20
2022-09-30T17:15:53.592Z,26.20
2022-09-30T17:18:22.162Z,26.30
2022-09-30T17:25:22.566Z,26.20
2022-09-30T17:27:52.746Z,26.20
2022-09-30T17:30:21.742Z,26.20
2022-09-30T17:32:50.502Z,26.10
2022-09-30T17:35:20.129Z,26.10
2022-09-30T17:37:48.797Z,26.10
2022-09-30T17:40:50.121Z,26.20
2022-09-30T17:43:20.345Z,26.20
2022-09-30T17:54:54.650Z,26.10
2022-09-30T17:57:23.533Z,26.10
2022-09-30T18:04:26.083Z,26.00
2022-09-30T18:06:54.899Z,26.00
2022-09-30T18:09:24.308Z,26.00
2022-09-30T18:11:54.527Z,26.00
2022-09-30T18:14:23.134Z,25.90
2022-09-30T18:16:51.718Z,25.90
2022-09-30T18:19:20.510Z,25.80
2022-09-30T18:21:50.859Z,25.80
2022-09-30T18:24:39.591Z,25.70
2022-09-30T18:27:08.399Z,25.70
2022-09-30T18:29:37.057Z,25.70
2022-09-30T18:32:06.480Z,25.70
2022-09-30T18:34:35.514Z,25.70
2022-09-30T18:37:06.737Z,25.70
2022-09-30T18:44:06.644Z,25.70
2022-09-30T18:46:36.107Z,25.70
2022-09-30T18:49:05.543Z,25.70
2022-09-30T18:51:34.667Z,25.80
2022-09-30T18:54:05.906Z,25.90
2022-09-30T18:56:34.844Z,26.00
2022-09-30T18:59:05.689Z,26.00
2022-09-30T19:01:36.522Z,26.00
2022-09-30T19:04:05.973Z,26.00
2022-09-30T19:06:34.946Z,26.00
2022-09-30T19:09:06.536Z,26.00
2022-09-30T19:16:07.107Z,26.30
2022-09-30T19:18:35.879Z,26.20
2022-09-30T19:21:07.155Z,26.20
2022-09-30T19:23:35.935Z,26.10
2022-09-30T19:26:07.253Z,26.10
2022-09-30T19:28:37.873Z,26.10
2022-09-30T19:31:12.417Z,26.10
2022-09-30T19:33:55.533Z,26.20
2022-09-30T19:36:27.018Z,26.30
2022-09-30T19:39:09.915Z,26.30
2022-09-30T19:41:42.139Z,26.30
2022-09-30T19:44:11.336Z,26.20
2022-09-30T19:51:16.924Z,26.20
2022-09-30T19:54:01.728Z,26.20
2022-09-30T19:56:36.045Z,26.10
2022-09-30T19:59:06.258Z,26.00
2022-09-30T20:01:35.622Z,26.00
2022-09-30T20:04:24.080Z,26.10
2022-09-30T20:06:53.771Z,26.20
2022-09-30T20:09:22.335Z,26.20
2022-09-30T20:11:51.290Z,26.20
2022-09-30T20:14:38.849Z,26.10
2022-09-30T20:17:07.730Z,26.00
2022-09-30T20:19:36.339Z,25.90
2022-09-30T20:22:05.357Z,25.90
2022-09-30T20:24:34.281Z,25.80
2022-09-30T20:27:02.835Z,25.90
2022-09-30T20:29:32.709Z,25.90
2022-09-30T20:32:02.302Z,25.90
2022-09-30T20:34:33.498Z,25.90
2022-09-30T20:37:04.331Z,25.90
2022-09-30T20:39:34.582Z,25.90
2022-09-30T20:46:36.652Z,26.00
2022-09-30T20:49:05.938Z,26.00
2022-09-30T20:51:34.923Z,25.90
2022-09-30T20:54:04.121Z,25.90
2022-09-30T20:56:50.078Z,25.90
2022-09-30T20:59:21.512Z,25.90
2022-09-30T21:01:51.952Z,25.90
2022-09-30T21:04:21.345Z,25.90
2022-09-30T21:06:50.132Z,25.80
2022-09-30T21:09:18.703Z,25.80
2022-09-30T21:11:47.263Z,25.70
2022-09-30T21:14:19.411Z,25.70
2022-09-30T21:16:48.053Z,25.70
2022-09-30T21:19:18.908Z,25.70
2022-09-30T21:21:47.442Z,25.70
2022-09-30T21:24:16.434Z,25.70
2022-09-30T21:26:45.273Z,25.70
2022-09-30T21:29:13.883Z,25.70
2022-09-30T21:36:15.432Z,25.80
2022-09-30T21:38:44.049Z,25.70
2022-09-30T21:41:12.686Z,25.70
2022-09-30T21:43:41.423Z,25.70
2022-09-30T21:46:16.584Z,25.70
2022-09-30T21:48:46.584Z,25.60
2022-09-30T21:51:17.966Z,25.70
2022-09-30T21:53:46.898Z,25.80
2022-09-30T21:56:15.416Z,25.80
2022-09-30T21:58:44.076Z,25.70
2022-09-30T22:01:12.837Z,25.70
2022-09-30T22:03:41.464Z,25.70
2022-09-30T22:06:12.577Z,25.70
2022-09-30T22:08:42.700Z,25.60
2022-09-30T22:11:14.766Z,25.70
2022-09-30T22:13:45.779Z,25.80
2022-09-30T22:16:16.410Z,25.80
2022-09-30T22:18:45.168Z,25.80
2022-09-30T22:21:15.944Z,25.80
2022-09-30T22:23:48.674Z,25.80
2022-09-30T22:26:21.215Z,25.80
2022-09-30T22:28:55.526Z,25.80
2022-09-30T22:31:27.282Z,25.90
2022-09-30T22:34:16.858Z,25.80
2022-09-30T22:37:03.421Z,25.80
2022-09-30T22:39:34.161Z,25.80
2022-09-30T22:42:03.796Z,25.70
2022-09-30T22:44:36.242Z,25.60
2022-09-30T22:47:06.438Z,25.60
2022-09-30T22:49:35.297Z,25.60
2022-09-30T22:52:04.752Z,25.50
2022-09-30T22:54:36.898Z,25.50
2022-09-30T22:57:07.923Z,25.40
2022-09-30T22:59:37.335Z,25.40
2022-09-30T23:02:06.408Z,25.40
2022-09-30T23:04:36.223Z,25.30
2022-09-30T23:07:07.655Z,25.40
2022-09-30T23:09:37.592Z,25.30
2022-09-30T23:12:06.320Z,25.30
2022-09-30T23:14:34.870Z,25.30
2022-09-30T23:17:03.438Z,25.30
2022-09-30T23:19:32.310Z,25.30
2022-09-30T23:22:00.904Z,25.40
2022-09-30T23:24:31.420Z,25.50
2022-09-30T23:27:01.688Z,25.50
2022-09-30T23:29:30.249Z,25.50
2022-09-30T23:31:58.854Z,25.50
2022-09-30T23:34:27.647Z,25.50
2022-09-30T23:36:56.180Z,25.40
2022-09-30T23:39:24.747Z,25.50
2022-09-30T23:41:53.512Z,25.40
2022-09-30T23:44:25.125Z,25.40
2022-09-30T23:47:11.386Z,25.40
2022-09-30T23:49:40.270Z,25.30
2022-09-30T23:52:13.216Z,25.30
2022-09-30T23:54:43.236Z,25.30
2022-09-30T23:57:12.912Z,25.30
2022-09-30T23:59:42.869Z,25.40
